createdAt,value
2023-04-27T00:00:39.451Z,100393.91
2023-04-27T00:03:42.284Z,100388.19
2023-04-27T00:06:44.614Z,100396.47
2023-04-27T00:09:47.190Z,100377.81
2023-04-27T00:12:49.340Z,100395.06
2023-04-27T00:15:51.542Z,100394.03
2023-04-27T00:18:54.107Z,100402.41
2023-04-27T00:21:57.990Z,100399.25
2023-04-27T00:25:00.146Z,100409.88
2023-04-27T00:28:02.369Z,100403.69
2023-04-27T00:31:04.679Z,100388.91
2023-04-27T00:34:06.904Z,100390.94
2023-04-27T00:37:09.126Z,100390.47
2023-04-27T00:40:11.953Z,100391.81
2023-04-27T00:43:14.713Z,100403.94
2023-04-27T00:46:17.389Z,100394.63
2023-04-27T00:49:23.757Z,100399.84
2023-04-27T00:52:26.014Z,100406.59
2023-04-27T00:55:28.282Z,100398.31
2023-04-27T00:58:30.602Z,100397.66
2023-04-27T01:01:34.193Z,100394.50
2023-04-27T01:04:37.075Z,100387.53
2023-04-27T01:07:40.223Z,100406.25
2023-04-27T01:10:42.395Z,100398.47
2023-04-27T01:13:46.272Z,100400.44
2023-04-27T01:16:48.640Z,100394.38
2023-04-27T01:19:51.529Z,100392.16
2023-04-27T01:22:53.740Z,100393.69
2023-04-27T01:25:55.933Z,100410.09
2023-04-27T01:28:58.107Z,100404.94
2023-04-27T01:32:02.477Z,100405.06
2023-04-27T01:35:05.754Z,100404.56
2023-04-27T01:38:08.231Z,100393.06
2023-04-27T01:41:10.952Z,100408.78
2023-04-27T01:44:13.184Z,100411.69
2023-04-27T01:47:17.231Z,100413.66
2023-04-27T01:50:19.862Z,100423.56
2023-04-27T01:53:22.053Z,100418.22
2023-04-27T01:56:24.563Z,100422.72
2023-04-27T01:59:26.830Z,100430.84
2023-04-27T02:02:29.264Z,100425.22
2023-04-27T02:05:31.834Z,100431.41
2023-04-27T02:08:34.954Z,100425.22
2023-04-27T02:11:37.174Z,100432.66
2023-04-27T02:14:39.478Z,100432.31
2023-04-27T02:17:41.687Z,100430.53
2023-04-27T02:20:44.354Z,100424.25
2023-04-27T02:23:46.710Z,100429.22
2023-04-27T02:26:48.966Z,100431.69
2023-04-27T02:29:51.486Z,100427.34
2023-04-27T02:32:54.606Z,100431.97
2023-04-27T02:35:56.897Z,100446.31
2023-04-27T02:38:59.065Z,100443.19
2023-04-27T02:42:02.883Z,100445.63
2023-04-27T02:45:07.112Z,100440.97
2023-04-27T02:48:09.511Z,100439.34
2023-04-27T02:51:12.415Z,100440.97
2023-04-27T02:54:14.608Z,100445.88
2023-04-27T02:57:16.847Z,100457.06
2023-04-27T03:00:19.837Z,100458.56
2023-04-27T03:03:22.956Z,100463.19
2023-04-27T03:06:25.655Z,100456.06
2023-04-27T03:09:27.905Z,100465.44
2023-04-27T03:12:30.194Z,100461.81
2023-04-27T03:15:35.425Z,100467.16
2023-04-27T03:18:38.337Z,100469.94
2023-04-27T03:21:40.530Z,100467.50
2023-04-27T03:24:43.038Z,100468.75
2023-04-27T03:27:45.306Z,100474.13
2023-04-27T03:30:47.524Z,100482.78
2023-04-27T03:33:49.723Z,100476.66
2023-04-27T03:36:51.976Z,100487.94
2023-04-27T03:39:54.200Z,100488.31
2023-04-27T03:42:59.027Z,100485.16
2023-04-27T03:46:01.685Z,100488.44
2023-04-27T03:49:03.959Z,100488.81
2023-04-27T03:52:06.574Z,100493.25
2023-04-27T03:55:10.792Z,100499.63
2023-04-27T03:58:14.438Z,100498.91
2023-04-27T04:01:36.360Z,100508.06
2023-04-27T04:04:38.891Z,100503.81
2023-04-27T04:07:41.676Z,100506.28
2023-04-27T04:10:43.946Z,100509.16
2023-04-27T04:13:47.360Z,100516.19
2023-04-27T04:16:49.695Z,100522.84
2023-04-27T04:19:51.963Z,100527.59
2023-04-27T04:22:55.575Z,100529.94
2023-04-27T04:25:57.850Z,100516.50
2023-04-27T04:29:03.789Z,100522.81
2023-04-27T04:32:07.560Z,100534.13
2023-04-27T04:35:09.905Z,100532.50
2023-04-27T04:38:12.160Z,100534.59
2023-04-27T04:41:14.845Z,100534.81
2023-04-27T04:44:17.066Z,100533.66
2023-04-27T04:47:20.196Z,100537.72
2023-04-27T04:50:23.471Z,100544.13
2023-04-27T04:53:26.977Z,100544.38
2023-04-27T04:56:31.006Z,100550.09
2023-04-27T04:59:36.048Z,100549.63
2023-04-27T05:02:38.456Z,100546.69
2023-04-27T05:05:40.986Z,100562.34
2023-04-27T05:08:43.267Z,100548.59
2023-04-27T05:11:45.590Z,100566.28
2023-04-27T05:14:48.475Z,100570.03
2023-04-27T05:17:50.779Z,100576.56
2023-04-27T05:20:52.987Z,100577.25
2023-04-27T05:23:55.273Z,100574.09
2023-04-27T05:26:57.470Z,100574.44
2023-04-27T05:29:59.699Z,100580.41
2023-04-27T05:33:02.970Z,100592.66
2023-04-27T05:36:05.532Z,100581.13
2023-04-27T05:39:08.092Z,100587.16
2023-04-27T05:42:10.582Z,100590.78
2023-04-27T05:45:12.962Z,100593.59
2023-04-27T05:48:15.177Z,100592.41
2023-04-27T05:51:17.620Z,100596.13
2023-04-27T05:54:19.796Z,100584.47
2023-04-27T05:57:22.049Z,100592.28
2023-04-27T06:00:25.931Z,100600.56
2023-04-27T06:03:28.494Z,100603.16
2023-04-27T06:06:35.473Z,100596.84
2023-04-27T06:09:42.474Z,100597.41
2023-04-27T06:12:55.114Z,100582.47
2023-04-27T06:15:57.481Z,100608.25
2023-04-27T06:19:00.558Z,100598.19
2023-04-27T06:22:04.903Z,100606.88
2023-04-27T06:25:10.323Z,100606.56
2023-04-27T06:28:13.033Z,100610.09
2023-04-27T06:31:17.173Z,100612.03
2023-04-27T06:34:21.398Z,100622.66
2023-04-27T06:37:23.682Z,100617.09
2023-04-27T06:40:27.741Z,100615.91
2023-04-27T06:43:34.461Z,100607.41
2023-04-27T06:46:42.032Z,100628.13
2023-04-27T06:49:45.169Z,100615.97
2023-04-27T06:52:47.448Z,100620.94
2023-04-27T06:55:51.119Z,100620.78
2023-04-27T06:58:53.333Z,100606.84
2023-04-27T07:01:58.390Z,100614.84
2023-04-27T07:05:01.172Z,100621.28
2023-04-27T07:08:08.626Z,100620.31
2023-04-27T07:11:18.742Z,100619.47
2023-04-27T07:14:32.406Z,100620.22
2023-04-27T07:17:41.081Z,100626.41
2023-04-27T07:20:43.500Z,100596.19
2023-04-27T07:23:46.661Z,100616.06
2023-04-27T07:26:48.903Z,100624.81
2023-04-27T07:29:52.753Z,100617.44
2023-04-27T07:32:55.056Z,100624.03
2023-04-27T07:35:58.377Z,100626.91
2023-04-27T07:39:01.381Z,100638.88
2023-04-27T07:42:03.862Z,100636.09
2023-04-27T07:45:06.734Z,100640.34
2023-04-27T07:48:10.517Z,100630.25
2023-04-27T07:51:20.500Z,100639.22
2023-04-27T07:54:23.036Z,100626.22
2023-04-27T07:57:25.531Z,100623.84
2023-04-27T08:00:28.225Z,100622.50
2023-04-27T08:03:34.703Z,100628.34
2023-04-27T08:06:43.102Z,100621.72
2023-04-27T08:09:48.184Z,100623.00
2023-04-27T08:12:55.271Z,100620.28
2023-04-27T08:16:03.814Z,100620.38
2023-04-27T08:19:06.357Z,100620.59
2023-04-27T08:22:10.350Z,100622.44
2023-04-27T08:25:15.014Z,100617.34
2023-04-27T08:28:17.653Z,100613.66
2023-04-27T08:31:21.057Z,100629.13
2023-04-27T08:34:24.636Z,100631.25
2023-04-27T08:37:36.766Z,100618.09
2023-04-27T08:40:52.037Z,100615.63
2023-04-27T08:43:54.439Z,100628.25
2023-04-27T08:46:57.434Z,100633.50
2023-04-27T08:50:00.029Z,100629.50
2023-04-27T08:53:02.328Z,100621.34
2023-04-27T08:56:06.160Z,100616.22
2023-04-27T08:59:20.305Z,100602.47
2023-04-27T09:02:25.815Z,100613.13
2023-04-27T09:05:33.108Z,100582.75
2023-04-27T09:08:50.970Z,100599.50
2023-04-27T09:11:56.775Z,100611.13
2023-04-27T09:15:05.221Z,100607.72
2023-04-27T09:18:07.645Z,100590.00
2023-04-27T09:21:10.680Z,100601.03
2023-04-27T09:24:17.508Z,100607.16
2023-04-27T09:27:21.759Z,100584.00
2023-04-27T09:30:24.570Z,100594.88
2023-04-27T09:33:29.770Z,100603.06
2023-04-27T09:36:34.999Z,100593.94
2023-04-27T09:39:37.563Z,100590.66
2023-04-27T09:42:40.269Z,100593.91
2023-04-27T09:45:46.744Z,100593.91
2023-04-27T09:48:54.279Z,100585.47
2023-04-27T09:51:59.738Z,100584.97
2023-04-27T09:56:19.571Z,100583.31
2023-04-27T10:01:49.381Z,100581.47
2023-04-27T10:04:28.191Z,100578.00
2023-04-27T10:07:33.746Z,100574.00
2023-04-27T10:10:48.048Z,100568.88
2023-04-27T10:13:55.088Z,100562.41
2023-04-27T10:16:59.979Z,100568.47
2023-04-27T10:20:04.147Z,100559.34
2023-04-27T10:23:07.117Z,100553.44
2023-04-27T10:26:09.402Z,100549.72
2023-04-27T10:29:12.601Z,100554.91
2023-04-27T10:32:25.686Z,100557.34
2023-04-27T10:35:35.323Z,100555.78
2023-04-27T10:38:43.495Z,100545.28
2023-04-27T10:41:56.716Z,100551.06
2023-04-27T10:44:59.447Z,100559.50
2023-04-27T10:48:02.108Z,100547.91
2023-04-27T10:51:27.482Z,100554.69
2023-04-27T10:54:29.834Z,100555.47
2023-04-27T10:57:33.093Z,100555.75
2023-04-27T11:00:44.676Z,100549.75
2023-04-27T11:03:55.353Z,100551.13
2023-04-27T11:06:57.766Z,100548.91
2023-04-27T11:10:00.312Z,100541.09
2023-04-27T11:13:11.424Z,100546.75
2023-04-27T11:16:13.795Z,100548.63
2023-04-27T11:19:18.509Z,100538.09
2023-04-27T11:22:20.853Z,100544.88
2023-04-27T11:25:29.965Z,100529.00
2023-04-27T11:28:33.075Z,100537.13
2023-04-27T11:31:51.933Z,100540.38
2023-04-27T11:35:02.623Z,100532.28
2023-04-27T11:38:06.894Z,100534.47
2023-04-27T11:41:09.185Z,100523.69
2023-04-27T11:44:11.930Z,100525.59
2023-04-27T11:47:19.292Z,100535.03
2023-04-27T11:50:24.995Z,100534.22
2023-04-27T11:53:39.535Z,100536.13
2023-04-27T11:56:43.017Z,100527.19
2023-04-27T11:59:45.304Z,100533.13
2023-04-27T12:02:47.678Z,100532.31
2023-04-27T12:05:51.257Z,100519.06
2023-04-27T12:08:53.551Z,100519.91
2023-04-27T12:11:56.287Z,100521.53
2023-04-27T12:14:58.853Z,100514.25
2023-04-27T12:18:01.273Z,100517.25
2023-04-27T12:21:11.427Z,100509.13
2023-04-27T12:24:13.984Z,100522.38
2023-04-27T12:27:16.760Z,100516.41
2023-04-27T12:30:19.528Z,100513.16
2023-04-27T12:33:22.301Z,100514.22
2023-04-27T12:36:24.813Z,100503.63
2023-04-27T12:39:27.397Z,100512.59
2023-04-27T12:42:30.220Z,100501.00
2023-04-27T12:45:32.686Z,100523.19
2023-04-27T12:48:34.968Z,100511.25
2023-04-27T12:51:37.930Z,100518.81
2023-04-27T12:54:44.754Z,100516.63
2023-04-27T12:57:47.423Z,100512.28
2023-04-27T13:00:49.648Z,100498.16
2023-04-27T13:03:53.778Z,100513.81
2023-04-27T13:06:56.680Z,100494.28
2023-04-27T13:09:58.981Z,100506.97
2023-04-27T13:13:01.331Z,100506.13
2023-04-27T13:16:04.492Z,100501.22
2023-04-27T13:19:06.745Z,100495.28
2023-04-27T13:22:09.922Z,100500.66
2023-04-27T13:25:12.245Z,100507.38
2023-04-27T13:28:14.436Z,100511.97
2023-04-27T13:31:16.685Z,100513.84
2023-04-27T13:34:19.471Z,100508.69
2023-04-27T13:37:21.799Z,100512.44
2023-04-27T13:40:24.046Z,100507.56
2023-04-27T13:43:27.264Z,100499.41
2023-04-27T13:46:29.566Z,100508.28
2023-04-27T13:49:31.924Z,100496.34
2023-04-27T13:52:38.137Z,100497.09
2023-04-27T13:55:40.644Z,100500.88
2023-04-27T13:58:42.894Z,100500.72
2023-04-27T14:01:45.274Z,100519.44
2023-04-27T14:04:47.499Z,100507.84
2023-04-27T14:07:49.767Z,100512.66
2023-04-27T14:10:51.934Z,100504.25
2023-04-27T14:13:54.120Z,100508.53
2023-04-27T14:16:57.268Z,100516.44
2023-04-27T14:19:59.496Z,100524.81
2023-04-27T14:23:03.126Z,100522.81
2023-04-27T14:26:06.020Z,100510.06
2023-04-27T14:29:08.163Z,100526.03
2023-04-27T14:32:10.429Z,100520.78
2023-04-27T14:35:12.743Z,100516.88
2023-04-27T14:38:14.961Z,100518.91
2023-04-27T14:41:17.395Z,100510.34
2023-04-27T14:44:19.856Z,100505.94
2023-04-27T14:47:22.166Z,100515.16
2023-04-27T14:50:27.125Z,100516.59
2023-04-27T14:53:29.289Z,100517.47
2023-04-27T14:56:31.447Z,100518.56
2023-04-27T14:59:34.315Z,100518.84
2023-04-27T15:02:37.868Z,100527.00
2023-04-27T15:05:40.329Z,100521.28
2023-04-27T15:08:42.524Z,100519.38
2023-04-27T15:11:44.824Z,100512.84
2023-04-27T15:14:48.286Z,100511.22
2023-04-27T15:17:50.599Z,100515.91
2023-04-27T15:20:56.625Z,100515.63
2023-04-27T15:23:58.794Z,100510.47
2023-04-27T15:27:01.689Z,100493.88
2023-04-27T15:30:04.696Z,100519.94
2023-04-27T15:33:09.538Z,100510.47
2023-04-27T15:36:12.774Z,100525.66
2023-04-27T15:39:15.251Z,100508.00
2023-04-27T15:42:17.820Z,100510.72
2023-04-27T15:45:20.315Z,100516.44
2023-04-27T15:48:22.467Z,100514.25
2023-04-27T15:51:24.763Z,100519.66
2023-04-27T15:54:27.134Z,100521.03
2023-04-27T15:57:29.338Z,100519.72
2023-04-27T16:00:31.970Z,100516.13
2023-04-27T16:03:34.844Z,100515.13
2023-04-27T16:06:37.272Z,100523.25
2023-04-27T16:09:39.445Z,100506.97
2023-04-27T16:12:41.677Z,100511.34
2023-04-27T16:15:43.882Z,100517.81
2023-04-27T16:18:46.665Z,100517.25
2023-04-27T16:21:49.106Z,100522.16
2023-04-27T16:24:51.513Z,100525.44
2023-04-27T16:27:53.670Z,100533.34
2023-04-27T16:30:56.019Z,100531.53
2023-04-27T16:33:58.196Z,100538.53
2023-04-27T16:37:00.436Z,100529.25
2023-04-27T16:40:07.019Z,100532.78
2023-04-27T16:43:09.518Z,100544.47
2023-04-27T16:46:11.947Z,100536.56
2023-04-27T16:49:14.600Z,100542.88
2023-04-27T16:52:18.035Z,100533.97
2023-04-27T16:55:20.285Z,100545.38
2023-04-27T16:58:22.784Z,100543.81
2023-04-27T17:01:31.467Z,100546.34
2023-04-27T17:04:39.305Z,100542.22
2023-04-27T17:07:41.639Z,100554.50
2023-04-27T17:10:45.291Z,100549.44
2023-04-27T17:13:49.597Z,100560.91
2023-04-27T17:16:52.079Z,100567.44
2023-04-27T17:19:54.239Z,100562.41
2023-04-27T17:22:56.454Z,100571.06
2023-04-27T17:25:58.569Z,100570.81
2023-04-27T17:29:01.615Z,100555.66
2023-04-27T17:32:04.531Z,100567.81
2023-04-27T17:35:07.181Z,100571.34
2023-04-27T17:38:09.939Z,100583.78
2023-04-27T17:41:12.227Z,100589.69
2023-04-27T17:44:14.412Z,100579.91
2023-04-27T17:47:18.908Z,100587.47
2023-04-27T17:50:21.114Z,100573.91
2023-04-27T17:53:23.500Z,100584.44
2023-04-27T17:56:25.804Z,100592.19
2023-04-27T17:59:28.950Z,100598.09
2023-04-27T18:02:31.249Z,100600.22
2023-04-27T18:05:36.373Z,100601.56
2023-04-27T18:08:38.598Z,100600.41
2023-04-27T18:11:41.457Z,100596.81
2023-04-27T18:14:43.633Z,100592.19
2023-04-27T18:17:45.897Z,100609.44
2023-04-27T18:20:48.477Z,100606.41
2023-04-27T18:23:51.155Z,100610.69
2023-04-27T18:26:53.296Z,100600.91
2023-04-27T18:29:55.995Z,100620.25
2023-04-27T18:32:58.530Z,100624.50
2023-04-27T18:36:00.789Z,100614.44
2023-04-27T18:39:03.260Z,100626.81
2023-04-27T18:42:05.505Z,100626.50
2023-04-27T18:45:08.239Z,100620.97
2023-04-27T18:48:10.479Z,100639.94
2023-04-27T18:51:12.750Z,100641.47
2023-04-27T18:54:15.094Z,100645.66
2023-04-27T18:57:17.231Z,100641.84
2023-04-27T19:00:19.775Z,100641.19
2023-04-27T19:03:22.320Z,100650.94
2023-04-27T19:06:24.632Z,100648.38
2023-04-27T19:09:27.210Z,100645.31
2023-04-27T19:12:29.583Z,100651.13
2023-04-27T19:15:31.884Z,100665.84
2023-04-27T19:18:34.708Z,100653.00
2023-04-27T19:21:39.021Z,100666.97
2023-04-27T19:24:41.255Z,100671.47
2023-04-27T19:27:43.527Z,100670.53
2023-04-27T19:30:46.704Z,100666.00
2023-04-27T19:40:13.371Z,100685.44
2023-04-27T19:43:15.705Z,100675.66
2023-04-27T19:46:18.167Z,100684.69
2023-04-27T19:49:20.716Z,100668.75
2023-04-27T19:52:22.898Z,100671.84
2023-04-27T19:55:25.063Z,100672.31
2023-04-27T19:58:27.284Z,100674.34
2023-04-27T20:01:29.722Z,100668.00
2023-04-27T20:04:32.839Z,100674.09
2023-04-27T20:07:35.474Z,100672.03
2023-04-27T20:10:37.757Z,100668.19
2023-04-27T20:13:39.989Z,100676.03
2023-04-27T20:16:42.269Z,100672.56
2023-04-27T20:19:46.107Z,100674.94
2023-04-27T20:22:48.424Z,100674.00
2023-04-27T20:25:52.198Z,100681.97
2023-04-27T20:28:54.587Z,100665.06
2023-04-27T20:31:56.839Z,100680.94
2023-04-27T20:35:01.416Z,100687.38
2023-04-27T20:38:04.599Z,100682.72
2023-04-27T20:41:06.763Z,100685.31
2023-04-27T20:44:09.552Z,100681.91
2023-04-27T20:47:12.029Z,100685.56
2023-04-27T20:50:14.462Z,100696.53
2023-04-27T20:53:17.070Z,100684.78
2023-04-27T20:56:20.187Z,100692.47
2023-04-27T20:59:22.435Z,100687.34
2023-04-27T21:02:24.919Z,100689.25
2023-04-27T21:05:27.113Z,100684.81
2023-04-27T21:08:29.352Z,100692.28
2023-04-27T21:11:31.745Z,100696.25
2023-04-27T21:14:34.892Z,100696.72
2023-04-27T21:17:37.176Z,100698.25
2023-04-27T21:20:39.651Z,100700.94
2023-04-27T21:23:41.792Z,100693.69
2023-04-27T21:26:43.955Z,100715.41
2023-04-27T21:29:46.553Z,100717.16
2023-04-27T21:32:48.911Z,100710.03
2023-04-27T21:35:51.180Z,100706.16
2023-04-27T21:38:53.428Z,100713.88
2023-04-27T21:41:55.772Z,100718.66
2023-04-27T21:44:58.025Z,100713.97
2023-04-27T21:48:00.310Z,100724.50
2023-04-27T21:51:02.675Z,100725.63
2023-04-27T21:54:04.972Z,100733.19
2023-04-27T21:57:07.412Z,100722.13
2023-04-27T22:00:13.663Z,100728.91
2023-04-27T22:03:22.888Z,100737.63
2023-04-27T22:06:25.711Z,100744.97
2023-04-27T22:09:28.148Z,100735.38
2023-04-27T22:12:31.602Z,100731.66
2023-04-27T22:15:34.065Z,100721.84
2023-04-27T22:18:36.678Z,100735.38
2023-04-27T22:21:38.918Z,100730.13
2023-04-27T22:24:41.281Z,100737.81
2023-04-27T22:27:45.433Z,100747.22
2023-04-27T22:30:48.043Z,100738.38
2023-04-27T22:33:50.418Z,100739.03
2023-04-27T22:36:53.314Z,100742.63
2023-04-27T22:39:56.075Z,100742.63
2023-04-27T22:42:58.286Z,100755.69
2023-04-27T22:46:00.545Z,100759.19
2023-04-27T22:49:03.394Z,100750.91
2023-04-27T22:52:05.616Z,100759.97
2023-04-27T22:55:08.303Z,100756.94
2023-04-27T22:58:10.536Z,100752.88
2023-04-27T23:01:12.881Z,100764.09
2023-04-27T23:04:16.352Z,100763.16
2023-04-27T23:07:19.105Z,100760.81
2023-04-27T23:10:21.575Z,100767.78
2023-04-27T23:13:30.655Z,100753.44
2023-04-27T23:16:32.946Z,100768.63
2023-04-27T23:19:35.124Z,100763.31
2023-04-27T23:22:39.989Z,100766.66
2023-04-27T23:25:42.193Z,100762.81
2023-04-27T23:28:44.726Z,100758.50
2023-04-27T23:31:46.901Z,100758.97
2023-04-27T23:34:49.102Z,100757.53
2023-04-27T23:37:51.651Z,100765.56
2023-04-27T23:40:53.893Z,100763.34
2023-04-27T23:43:56.105Z,100761.03
2023-04-27T23:46:58.428Z,100760.81
2023-04-27T23:50:02.371Z,100761.84
2023-04-27T23:53:04.670Z,100757.53
2023-04-27T23:56:07.159Z,100769.19
2023-04-27T23:59:10.872Z,100771.97
